sensor_id;sensor_type;location;lat;lon;timestamp;P1;durP1;ratioP1;P2;durP2;ratioP2
826;SDS011;395;48.132;11.608;2023-04-25T00:02:02;2.30;;;2.10;;
826;SDS011;395;48.132;11.608;2023-04-25T00:04:28;2.60;;;2.40;;
826;SDS011;395;48.132;11.608;2023-04-25T00:06:54;2.20;;;2.10;;
826;SDS011;395;48.132;11.608;2023-04-25T00:09:20;2.27;;;2.07;;
826;SDS011;395;48.132;11.608;2023-04-25T00:11:47;2.20;;;2.00;;
826;SDS011;395;48.132;11.608;2023-04-25T00:14:13;2.30;;;2.10;;
826;SDS011;395;48.132;11.608;2023-04-25T00:16:39;2.50;;;2.30;;
826;SDS011;395;48.132;11.608;2023-04-25T00:19:06;2.60;;;2.23;;
826;SDS011;395;48.132;11.608;2023-04-25T00:21:32;2.97;;;2.07;;
826;SDS011;395;48.132;11.608;2023-04-25T00:23:58;2.43;;;2.00;;
826;SDS011;395;48.132;11.608;2023-04-25T00:26:24;3.13;;;2.33;;
826;SDS011;395;48.132;11.608;2023-04-25T00:28:50;3.13;;;1.80;;
826;SDS011;395;48.132;11.608;2023-04-25T00:31:16;2.40;;;2.20;;
826;SDS011;395;48.132;11.608;2023-04-25T00:33:41;2.17;;;1.93;;
826;SDS011;395;48.132;11.608;2023-04-25T00:36:07;1.80;;;1.70;;
826;SDS011;395;48.132;11.608;2023-04-25T00:38:33;2.37;;;2.17;;
826;SDS011;395;48.132;11.608;2023-04-25T00:40:59;2.00;;;1.80;;
826;SDS011;395;48.132;11.608;2023-04-25T00:43:26;4.67;;;2.37;;
826;SDS011;395;48.132;11.608;2023-04-25T00:45:52;4.90;;;2.43;;
826;SDS011;395;48.132;11.608;2023-04-25T00:48:21;2.57;;;2.30;;
826;SDS011;395;48.132;11.608;2023-04-25T00:50:51;3.50;;;2.40;;
826;SDS011;395;48.132;11.608;2023-04-25T00:53:19;3.50;;;2.60;;
826;SDS011;395;48.132;11.608;2023-04-25T00:55:46;2.70;;;2.50;;
826;SDS011;395;48.132;11.608;2023-04-25T00:58:11;5.17;;;2.87;;
826;SDS011;395;48.132;11.608;2023-04-25T01:00:37;3.10;;;2.80;;
826;SDS011;395;48.132;11.608;2023-04-25T01:03:05;3.60;;;3.00;;
826;SDS011;395;48.132;11.608;2023-04-25T01:05:31;2.83;;;2.63;;
826;SDS011;395;48.132;11.608;2023-04-25T01:07:57;2.77;;;2.37;;
826;SDS011;395;48.132;11.608;2023-04-25T01:10:23;2.30;;;2.10;;
826;SDS011;395;48.132;11.608;2023-04-25T01:12:49;2.37;;;2.17;;
826;SDS011;395;48.132;11.608;2023-04-25T01:15:14;3.77;;;2.57;;
826;SDS011;395;48.132;11.608;2023-04-25T01:17:41;3.20;;;2.20;;
826;SDS011;395;48.132;11.608;2023-04-25T01:20:07;1.97;;;1.70;;
826;SDS011;395;48.132;11.608;2023-04-25T01:22:34;1.73;;;1.63;;
826;SDS011;395;48.132;11.608;2023-04-25T01:25:00;2.80;;;2.13;;
826;SDS011;395;48.132;11.608;2023-04-25T01:27:27;2.63;;;2.43;;
826;SDS011;395;48.132;11.608;2023-04-25T01:29:53;2.67;;;2.47;;
826;SDS011;395;48.132;11.608;2023-04-25T01:32:20;2.80;;;2.57;;
826;SDS011;395;48.132;11.608;2023-04-25T01:34:47;2.50;;;2.27;;
826;SDS011;395;48.132;11.608;2023-04-25T01:37:13;2.93;;;2.40;;
826;SDS011;395;48.132;11.608;2023-04-25T01:39:40;2.00;;;1.90;;
826;SDS011;395;48.132;11.608;2023-04-25T01:42:06;2.63;;;2.43;;
826;SDS011;395;48.132;11.608;2023-04-25T01:44:31;3.07;;;2.77;;
826;SDS011;395;48.132;11.608;2023-04-25T01:46:57;3.50;;;2.40;;
826;SDS011;395;48.132;11.608;2023-04-25T01:49:23;3.73;;;2.37;;
826;SDS011;395;48.132;11.608;2023-04-25T01:51:49;2.00;;;1.90;;
826;SDS011;395;48.132;11.608;2023-04-25T01:54:14;3.00;;;2.27;;
826;SDS011;395;48.132;11.608;2023-04-25T01:56:40;2.53;;;2.07;;
826;SDS011;395;48.132;11.608;2023-04-25T01:59:06;2.37;;;2.17;;
826;SDS011;395;48.132;11.608;2023-04-25T02:01:32;2.47;;;2.27;;
826;SDS011;395;48.132;11.608;2023-04-25T02:03:58;6.30;;;2.63;;
826;SDS011;395;48.132;11.608;2023-04-25T02:06:23;2.17;;;2.03;;
826;SDS011;395;48.132;11.608;2023-04-25T02:08:49;2.77;;;2.30;;
826;SDS011;395;48.132;11.608;2023-04-25T02:11:15;2.40;;;2.20;;
826;SDS011;395;48.132;11.608;2023-04-25T02:13:40;2.83;;;2.63;;
826;SDS011;395;48.132;11.608;2023-04-25T02:16:06;3.40;;;2.50;;
826;SDS011;395;48.132;11.608;2023-04-25T02:18:32;3.63;;;2.50;;
826;SDS011;395;48.132;11.608;2023-04-25T02:20:58;2.70;;;2.47;;
826;SDS011;395;48.132;11.608;2023-04-25T02:23:24;2.40;;;2.20;;
826;SDS011;395;48.132;11.608;2023-04-25T02:25:50;2.93;;;2.57;;
826;SDS011;395;48.132;11.608;2023-04-25T02:28:17;2.30;;;2.10;;
826;SDS011;395;48.132;11.608;2023-04-25T02:30:42;2.80;;;2.10;;
826;SDS011;395;48.132;11.608;2023-04-25T02:33:08;3.70;;;2.80;;
826;SDS011;395;48.132;11.608;2023-04-25T02:35:33;2.83;;;2.27;;
826;SDS011;395;48.132;11.608;2023-04-25T02:37:59;5.27;;;2.73;;
826;SDS011;395;48.132;11.608;2023-04-25T02:40:25;4.23;;;2.57;;
826;SDS011;395;48.132;11.608;2023-04-25T02:42:51;2.77;;;2.33;;
826;SDS011;395;48.132;11.608;2023-04-25T02:45:16;2.80;;;2.50;;
826;SDS011;395;48.132;11.608;2023-04-25T02:47:42;3.87;;;2.57;;
826;SDS011;395;48.132;11.608;2023-04-25T02:50:08;2.70;;;2.50;;
826;SDS011;395;48.132;11.608;2023-04-25T02:52:34;2.90;;;2.60;;
826;SDS011;395;48.132;11.608;2023-04-25T02:55:00;3.63;;;2.80;;
826;SDS011;395;48.132;11.608;2023-04-25T02:57:25;2.50;;;2.23;;
826;SDS011;395;48.132;11.608;2023-04-25T02:59:51;3.90;;;2.53;;
826;SDS011;395;48.132;11.608;2023-04-25T03:02:17;2.90;;;2.60;;
826;SDS011;395;48.132;11.608;2023-04-25T03:04:42;3.33;;;2.50;;
826;SDS011;395;48.132;11.608;2023-04-25T03:07:08;3.13;;;2.23;;
826;SDS011;395;48.132;11.608;2023-04-25T03:09:33;4.40;;;2.90;;
826;SDS011;395;48.132;11.608;2023-04-25T03:12:00;2.53;;;2.00;;
826;SDS011;395;48.132;11.608;2023-04-25T03:14:26;2.87;;;2.50;;
826;SDS011;395;48.132;11.608;2023-04-25T03:16:52;2.60;;;2.40;;
826;SDS011;395;48.132;11.608;2023-04-25T03:19:17;4.90;;;2.40;;
826;SDS011;395;48.132;11.608;2023-04-25T03:21:44;4.73;;;2.63;;
826;SDS011;395;48.132;11.608;2023-04-25T03:24:10;3.30;;;2.30;;
826;SDS011;395;48.132;11.608;2023-04-25T03:26:38;3.50;;;2.40;;
826;SDS011;395;48.132;11.608;2023-04-25T03:29:04;2.50;;;2.30;;
826;SDS011;395;48.132;11.608;2023-04-25T03:31:30;2.83;;;2.27;;
826;SDS011;395;48.132;11.608;2023-04-25T03:33:56;2.47;;;2.20;;
826;SDS011;395;48.132;11.608;2023-04-25T03:36:21;6.27;;;2.10;;
826;SDS011;395;48.132;11.608;2023-04-25T03:38:47;3.03;;;2.07;;
826;SDS011;395;48.132;11.608;2023-04-25T03:41:13;2.30;;;2.10;;
826;SDS011;395;48.132;11.608;2023-04-25T03:43:39;4.03;;;2.27;;
826;SDS011;395;48.132;11.608;2023-04-25T03:46:04;2.50;;;2.10;;
826;SDS011;395;48.132;11.608;2023-04-25T03:48:30;2.37;;;2.03;;
826;SDS011;395;48.132;11.608;2023-04-25T03:50:56;3.67;;;2.13;;
826;SDS011;395;48.132;11.608;2023-04-25T03:53:21;3.30;;;2.00;;
826;SDS011;395;48.132;11.608;2023-04-25T03:55:47;4.83;;;4.30;;
826;SDS011;395;48.132;11.608;2023-04-25T03:58:12;3.00;;;2.40;;
826;SDS011;395;48.132;11.608;2023-04-25T04:00:38;3.40;;;2.27;;
826;SDS011;395;48.132;11.608;2023-04-25T04:03:04;3.50;;;2.30;;
826;SDS011;395;48.132;11.608;2023-04-25T04:05:30;2.67;;;1.73;;
826;SDS011;395;48.132;11.608;2023-04-25T04:07:55;2.20;;;2.00;;
826;SDS011;395;48.132;11.608;2023-04-25T04:10:21;2.77;;;1.90;;
826;SDS011;395;48.132;11.608;2023-04-25T04:12:47;2.73;;;2.07;;
826;SDS011;395;48.132;11.608;2023-04-25T04:15:13;3.63;;;1.83;;
826;SDS011;395;48.132;11.608;2023-04-25T04:17:39;2.63;;;1.87;;
826;SDS011;395;48.132;11.608;2023-04-25T04:20:05;3.10;;;2.53;;
826;SDS011;395;48.132;11.608;2023-04-25T04:22:32;3.23;;;2.30;;
826;SDS011;395;48.132;11.608;2023-04-25T04:24:58;3.43;;;2.03;;
826;SDS011;395;48.132;11.608;2023-04-25T04:27:24;2.70;;;1.77;;
826;SDS011;395;48.132;11.608;2023-04-25T04:29:49;1.83;;;1.73;;
826;SDS011;395;48.132;11.608;2023-04-25T04:32:17;2.50;;;1.73;;
826;SDS011;395;48.132;11.608;2023-04-25T04:34:43;2.30;;;2.10;;
826;SDS011;395;48.132;11.608;2023-04-25T04:37:09;2.10;;;1.87;;
826;SDS011;395;48.132;11.608;2023-04-25T04:39:35;2.50;;;1.90;;
826;SDS011;395;48.132;11.608;2023-04-25T04:42:01;2.17;;;1.97;;
826;SDS011;395;48.132;11.608;2023-04-25T04:44:28;2.90;;;2.20;;
826;SDS011;395;48.132;11.608;2023-04-25T04:46:54;3.20;;;2.10;;
826;SDS011;395;48.132;11.608;2023-04-25T04:49:20;7.60;;;2.30;;
826;SDS011;395;48.132;11.608;2023-04-25T04:51:46;3.17;;;2.33;;
826;SDS011;395;48.132;11.608;2023-04-25T04:54:12;2.40;;;2.00;;
826;SDS011;395;48.132;11.608;2023-04-25T04:56:38;2.40;;;2.20;;
826;SDS011;395;48.132;11.608;2023-04-25T04:59:03;3.40;;;2.50;;
826;SDS011;395;48.132;11.608;2023-04-25T05:01:29;1.97;;;1.87;;
826;SDS011;395;48.132;11.608;2023-04-25T05:03:55;2.13;;;1.97;;
826;SDS011;395;48.132;11.608;2023-04-25T05:06:25;2.37;;;1.87;;
826;SDS011;395;48.132;11.608;2023-04-25T05:08:55;3.00;;;1.70;;
826;SDS011;395;48.132;11.608;2023-04-25T05:11:21;3.23;;;2.17;;
826;SDS011;395;48.132;11.608;2023-04-25T05:13:48;6.60;;;2.30;;
826;SDS011;395;48.132;11.608;2023-04-25T05:16:14;3.30;;;1.83;;
826;SDS011;395;48.132;11.608;2023-04-25T05:18:40;3.30;;;2.33;;
826;SDS011;395;48.132;11.608;2023-04-25T05:21:06;2.70;;;2.20;;
826;SDS011;395;48.132;11.608;2023-04-25T05:23:32;4.63;;;2.50;;
826;SDS011;395;48.132;11.608;2023-04-25T05:25:58;3.93;;;2.50;;
826;SDS011;395;48.132;11.608;2023-04-25T05:28:24;2.83;;;2.37;;
826;SDS011;395;48.132;11.608;2023-04-25T05:30:51;3.43;;;2.43;;
826;SDS011;395;48.132;11.608;2023-04-25T05:33:17;3.30;;;2.60;;
826;SDS011;395;48.132;11.608;2023-04-25T05:35:43;4.20;;;2.07;;
826;SDS011;395;48.132;11.608;2023-04-25T05:38:08;2.97;;;2.27;;
826;SDS011;395;48.132;11.608;2023-04-25T05:40:34;3.60;;;2.20;;
826;SDS011;395;48.132;11.608;2023-04-25T05:43:00;3.67;;;2.30;;
826;SDS011;395;48.132;11.608;2023-04-25T05:45:26;3.03;;;2.20;;
826;SDS011;395;48.132;11.608;2023-04-25T05:47:51;3.40;;;2.50;;
826;SDS011;395;48.132;11.608;2023-04-25T05:50:17;5.07;;;2.53;;
826;SDS011;395;48.132;11.608;2023-04-25T05:52:43;2.60;;;2.40;;
826;SDS011;395;48.132;11.608;2023-04-25T05:55:08;3.40;;;2.20;;
826;SDS011;395;48.132;11.608;2023-04-25T05:57:34;4.87;;;2.43;;
826;SDS011;395;48.132;11.608;2023-04-25T06:00:00;4.07;;;2.57;;
826;SDS011;395;48.132;11.608;2023-04-25T06:02:25;2.50;;;2.30;;
826;SDS011;395;48.132;11.608;2023-04-25T06:04:51;4.43;;;2.13;;
826;SDS011;395;48.132;11.608;2023-04-25T06:07:18;2.37;;;1.70;;
826;SDS011;395;48.132;11.608;2023-04-25T06:09:44;1.83;;;1.73;;
826;SDS011;395;48.132;11.608;2023-04-25T06:12:10;2.30;;;1.60;;
826;SDS011;395;48.132;11.608;2023-04-25T06:14:36;1.87;;;1.70;;
826;SDS011;395;48.132;11.608;2023-04-25T06:17:02;2.87;;;1.90;;
826;SDS011;395;48.132;11.608;2023-04-25T06:19:32;3.70;;;2.00;;
826;SDS011;395;48.132;11.608;2023-04-25T06:21:58;3.80;;;2.47;;
826;SDS011;395;48.132;11.608;2023-04-25T06:24:23;3.50;;;2.17;;
826;SDS011;395;48.132;11.608;2023-04-25T06:26:49;2.80;;;1.80;;
826;SDS011;395;48.132;11.608;2023-04-25T06:29:15;4.03;;;2.23;;
826;SDS011;395;48.132;11.608;2023-04-25T06:31:40;2.23;;;2.03;;
826;SDS011;395;48.132;11.608;2023-04-25T06:34:06;3.20;;;2.70;;
826;SDS011;395;48.132;11.608;2023-04-25T06:36:32;5.57;;;2.30;;
826;SDS011;395;48.132;11.608;2023-04-25T06:38:57;3.67;;;2.20;;
826;SDS011;395;48.132;11.608;2023-04-25T06:41:23;3.37;;;3.03;;
826;SDS011;395;48.132;11.608;2023-04-25T06:43:48;5.10;;;2.93;;
826;SDS011;395;48.132;11.608;2023-04-25T06:46:14;3.10;;;2.30;;
826;SDS011;395;48.132;11.608;2023-04-25T06:48:39;5.57;;;3.17;;
826;SDS011;395;48.132;11.608;2023-04-25T06:51:05;4.07;;;3.10;;
826;SDS011;395;48.132;11.608;2023-04-25T06:53:31;3.77;;;2.93;;
826;SDS011;395;48.132;11.608;2023-04-25T06:55:56;3.13;;;2.73;;
826;SDS011;395;48.132;11.608;2023-04-25T06:58:22;4.70;;;2.97;;
826;SDS011;395;48.132;11.608;2023-04-25T07:00:48;4.17;;;3.17;;
826;SDS011;395;48.132;11.608;2023-04-25T07:03:13;3.17;;;2.77;;
826;SDS011;395;48.132;11.608;2023-04-25T07:05:39;3.80;;;3.50;;
826;SDS011;395;48.132;11.608;2023-04-25T07:08:05;4.43;;;3.30;;
826;SDS011;395;48.132;11.608;2023-04-25T07:10:31;4.03;;;3.03;;
826;SDS011;395;48.132;11.608;2023-04-25T07:12:56;3.60;;;3.23;;
826;SDS011;395;48.132;11.608;2023-04-25T07:15:22;4.50;;;3.53;;
826;SDS011;395;48.132;11.608;2023-04-25T07:17:48;4.20;;;3.70;;
826;SDS011;395;48.132;11.608;2023-04-25T07:20:13;5.20;;;3.67;;
826;SDS011;395;48.132;11.608;2023-04-25T07:22:39;6.03;;;4.10;;
826;SDS011;395;48.132;11.608;2023-04-25T07:25:05;3.63;;;3.33;;
826;SDS011;395;48.132;11.608;2023-04-25T07:27:31;4.87;;;2.93;;
826;SDS011;395;48.132;11.608;2023-04-25T07:29:56;5.57;;;2.77;;
826;SDS011;395;48.132;11.608;2023-04-25T07:32:22;3.83;;;2.60;;
826;SDS011;395;48.132;11.608;2023-04-25T07:34:48;3.50;;;2.70;;
826;SDS011;395;48.132;11.608;2023-04-25T07:37:14;4.10;;;2.83;;
826;SDS011;395;48.132;11.608;2023-04-25T07:39:40;3.53;;;2.93;;
826;SDS011;395;48.132;11.608;2023-04-25T07:42:06;5.30;;;3.10;;
826;SDS011;395;48.132;11.608;2023-04-25T07:44:33;2.60;;;2.40;;
826;SDS011;395;48.132;11.608;2023-04-25T07:47:06;3.53;;;3.03;;
826;SDS011;395;48.132;11.608;2023-04-25T07:49:33;4.83;;;2.87;;
826;SDS011;395;48.132;11.608;2023-04-25T07:51:59;4.10;;;2.80;;
826;SDS011;395;48.132;11.608;2023-04-25T07:54:25;5.27;;;3.37;;
826;SDS011;395;48.132;11.608;2023-04-25T07:56:51;5.70;;;3.43;;
826;SDS011;395;48.132;11.608;2023-04-25T07:59:17;6.33;;;3.10;;
826;SDS011;395;48.132;11.608;2023-04-25T08:01:42;3.93;;;3.53;;
826;SDS011;395;48.132;11.608;2023-04-25T08:04:08;4.50;;;3.40;;
826;SDS011;395;48.132;11.608;2023-04-25T08:06:33;3.70;;;2.40;;
826;SDS011;395;48.132;11.608;2023-04-25T08:09:00;3.50;;;2.83;;
826;SDS011;395;48.132;11.608;2023-04-25T08:11:26;4.03;;;3.20;;
826;SDS011;395;48.132;11.608;2023-04-25T08:13:52;7.43;;;3.40;;
826;SDS011;395;48.132;11.608;2023-04-25T08:16:17;6.23;;;3.37;;
826;SDS011;395;48.132;11.608;2023-04-25T08:18:43;3.97;;;3.17;;
826;SDS011;395;48.132;11.608;2023-04-25T08:21:09;8.10;;;4.13;;
826;SDS011;395;48.132;11.608;2023-04-25T08:23:36;7.53;;;3.97;;
826;SDS011;395;48.132;11.608;2023-04-25T08:26:02;4.33;;;3.40;;
826;SDS011;395;48.132;11.608;2023-04-25T08:28:28;4.10;;;3.13;;
826;SDS011;395;48.132;11.608;2023-04-25T08:30:54;4.60;;;3.27;;
826;SDS011;395;48.132;11.608;2023-04-25T08:33:19;3.13;;;2.87;;
826;SDS011;395;48.132;11.608;2023-04-25T08:35:45;4.30;;;3.37;;
826;SDS011;395;48.132;11.608;2023-04-25T08:38:11;3.83;;;3.30;;
826;SDS011;395;48.132;11.608;2023-04-25T08:40:37;4.17;;;2.43;;
826;SDS011;395;48.132;11.608;2023-04-25T08:43:04;3.87;;;3.03;;
826;SDS011;395;48.132;11.608;2023-04-25T08:45:36;2.93;;;2.53;;
826;SDS011;395;48.132;11.608;2023-04-25T08:48:05;4.70;;;2.83;;
826;SDS011;395;48.132;11.608;2023-04-25T08:50:36;4.50;;;3.17;;
826;SDS011;395;48.132;11.608;2023-04-25T08:53:09;3.30;;;2.43;;
826;SDS011;395;48.132;11.608;2023-04-25T08:55:43;3.07;;;2.47;;
826;SDS011;395;48.132;11.608;2023-04-25T08:58:11;3.00;;;2.70;;
826;SDS011;395;48.132;11.608;2023-04-25T09:00:38;2.70;;;2.50;;
826;SDS011;395;48.132;11.608;2023-04-25T09:03:04;2.67;;;2.47;;
826;SDS011;395;48.132;11.608;2023-04-25T09:05:30;3.03;;;1.77;;
826;SDS011;395;48.132;11.608;2023-04-25T09:08:00;2.30;;;1.87;;
826;SDS011;395;48.132;11.608;2023-04-25T09:10:26;3.30;;;2.00;;
826;SDS011;395;48.132;11.608;2023-04-25T09:13:05;3.10;;;1.90;;
826;SDS011;395;48.132;11.608;2023-04-25T09:15:52;2.57;;;1.90;;
826;SDS011;395;48.132;11.608;2023-04-25T09:18:22;2.40;;;2.20;;
826;SDS011;395;48.132;11.608;2023-04-25T09:21:05;3.60;;;1.80;;
826;SDS011;395;48.132;11.608;2023-04-25T09:23:44;3.20;;;1.80;;
826;SDS011;395;48.132;11.608;2023-04-25T09:26:13;3.03;;;1.57;;
826;SDS011;395;48.132;11.608;2023-04-25T09:28:43;6.30;;;2.43;;
826;SDS011;395;48.132;11.608;2023-04-25T09:31:10;2.20;;;1.97;;
826;SDS011;395;48.132;11.608;2023-04-25T09:33:36;3.60;;;2.20;;
826;SDS011;395;48.132;11.608;2023-04-25T09:36:03;2.20;;;2.00;;
826;SDS011;395;48.132;11.608;2023-04-25T09:38:31;1.97;;;1.77;;
826;SDS011;395;48.132;11.608;2023-04-25T09:40:58;2.90;;;2.10;;
826;SDS011;395;48.132;11.608;2023-04-25T09:43:25;2.60;;;2.10;;
826;SDS011;395;48.132;11.608;2023-04-25T09:45:53;1.90;;;1.70;;
826;SDS011;395;48.132;11.608;2023-04-25T09:48:22;2.20;;;1.70;;
826;SDS011;395;48.132;11.608;2023-04-25T09:53:41;1.90;;;1.60;;
826;SDS011;395;48.132;11.608;2023-04-25T09:56:09;2.57;;;2.10;;
826;SDS011;395;48.132;11.608;2023-04-25T09:58:36;1.50;;;1.40;;
826;SDS011;395;48.132;11.608;2023-04-25T10:01:04;3.80;;;1.77;;
826;SDS011;395;48.132;11.608;2023-04-25T10:03:32;4.70;;;2.07;;
826;SDS011;395;48.132;11.608;2023-04-25T10:06:02;1.67;;;1.40;;
826;SDS011;395;48.132;11.608;2023-04-25T10:08:32;2.90;;;1.80;;
826;SDS011;395;48.132;11.608;2023-04-25T10:11:03;2.90;;;2.00;;
826;SDS011;395;48.132;11.608;2023-04-25T10:13:30;3.30;;;2.10;;
826;SDS011;395;48.132;11.608;2023-04-25T10:15:57;2.67;;;2.27;;
826;SDS011;395;48.132;11.608;2023-04-25T10:18:27;3.10;;;2.10;;
826;SDS011;395;48.132;11.608;2023-04-25T10:20:54;2.43;;;1.97;;
826;SDS011;395;48.132;11.608;2023-04-25T10:23:21;3.90;;;2.23;;
826;SDS011;395;48.132;11.608;2023-04-25T10:25:47;3.03;;;2.30;;
826;SDS011;395;48.132;11.608;2023-04-25T10:28:13;3.40;;;2.07;;
826;SDS011;395;48.132;11.608;2023-04-25T10:30:56;2.53;;;1.80;;
826;SDS011;395;48.132;11.608;2023-04-25T10:33:33;6.30;;;1.90;;
826;SDS011;395;48.132;11.608;2023-04-25T10:36:09;5.67;;;2.40;;
826;SDS011;395;48.132;11.608;2023-04-25T10:38:41;2.90;;;1.83;;
826;SDS011;395;48.132;11.608;2023-04-25T10:41:09;3.70;;;2.10;;
826;SDS011;395;48.132;11.608;2023-04-25T10:43:45;4.03;;;2.10;;
826;SDS011;395;48.132;11.608;2023-04-25T10:46:16;2.40;;;1.90;;
826;SDS011;395;48.132;11.608;2023-04-25T10:48:53;6.40;;;2.10;;
826;SDS011;395;48.132;11.608;2023-04-25T10:54:01;1.60;;;1.50;;
826;SDS011;395;48.132;11.608;2023-04-25T10:56:33;1.93;;;1.30;;
826;SDS011;395;48.132;11.608;2023-04-25T10:59:06;1.90;;;1.50;;
826;SDS011;395;48.132;11.608;2023-04-25T11:01:42;2.13;;;1.63;;
826;SDS011;395;48.132;11.608;2023-04-25T11:09:36;2.33;;;1.70;;
826;SDS011;395;48.132;11.608;2023-04-25T11:12:06;3.27;;;1.70;;
826;SDS011;395;48.132;11.608;2023-04-25T11:14:33;2.63;;;2.23;;
826;SDS011;395;48.132;11.608;2023-04-25T11:16:59;1.70;;;1.60;;
826;SDS011;395;48.132;11.608;2023-04-25T11:19:27;1.90;;;1.47;;
826;SDS011;395;48.132;11.608;2023-04-25T11:21:56;2.30;;;1.60;;
826;SDS011;395;48.132;11.608;2023-04-25T11:24:30;2.90;;;1.20;;
826;SDS011;395;48.132;11.608;2023-04-25T11:26:57;2.00;;;1.53;;
826;SDS011;395;48.132;11.608;2023-04-25T11:29:26;1.63;;;1.33;;
826;SDS011;395;48.132;11.608;2023-04-25T11:31:52;1.33;;;1.23;;
826;SDS011;395;48.132;11.608;2023-04-25T11:34:21;1.90;;;0.90;;
826;SDS011;395;48.132;11.608;2023-04-25T11:36:47;1.20;;;1.00;;
826;SDS011;395;48.132;11.608;2023-04-25T11:39:13;1.27;;;1.17;;
826;SDS011;395;48.132;11.608;2023-04-25T11:41:40;1.77;;;1.47;;
826;SDS011;395;48.132;11.608;2023-04-25T11:44:06;2.57;;;1.63;;
826;SDS011;395;48.132;11.608;2023-04-25T11:46:35;5.30;;;1.73;;
826;SDS011;395;48.132;11.608;2023-04-25T11:49:02;4.17;;;1.53;;
826;SDS011;395;48.132;11.608;2023-04-25T11:51:29;1.67;;;1.43;;
826;SDS011;395;48.132;11.608;2023-04-25T11:53:56;2.00;;;1.80;;
826;SDS011;395;48.132;11.608;2023-04-25T11:56:22;1.90;;;1.80;;
826;SDS011;395;48.132;11.608;2023-04-25T11:59:00;3.13;;;1.90;;
826;SDS011;395;48.132;11.608;2023-04-25T12:01:34;2.10;;;1.90;;
826;SDS011;395;48.132;11.608;2023-04-25T12:06:41;2.20;;;1.67;;
826;SDS011;395;48.132;11.608;2023-04-25T12:09:09;3.43;;;1.83;;
826;SDS011;395;48.132;11.608;2023-04-25T12:11:43;1.00;;;1.00;;
826;SDS011;395;48.132;11.608;2023-04-25T12:14:20;1.97;;;1.30;;
826;SDS011;395;48.132;11.608;2023-04-25T12:16:52;2.60;;;1.40;;
826;SDS011;395;48.132;11.608;2023-04-25T12:19:20;1.07;;;0.97;;
826;SDS011;395;48.132;11.608;2023-04-25T12:21:47;1.63;;;1.53;;
826;SDS011;395;48.132;11.608;2023-04-25T12:24:17;1.83;;;1.63;;
826;SDS011;395;48.132;11.608;2023-04-25T12:26:48;0.97;;;0.97;;
826;SDS011;395;48.132;11.608;2023-04-25T12:29:25;1.90;;;1.50;;
826;SDS011;395;48.132;11.608;2023-04-25T12:31:53;2.33;;;1.30;;
826;SDS011;395;48.132;11.608;2023-04-25T12:34:19;4.03;;;1.20;;
826;SDS011;395;48.132;11.608;2023-04-25T12:36:46;1.60;;;1.50;;
826;SDS011;395;48.132;11.608;2023-04-25T12:39:16;1.47;;;1.07;;
826;SDS011;395;48.132;11.608;2023-04-25T12:41:43;1.33;;;0.87;;
826;SDS011;395;48.132;11.608;2023-04-25T12:44:09;1.20;;;1.10;;
826;SDS011;395;48.132;11.608;2023-04-25T12:46:35;0.90;;;0.90;;
826;SDS011;395;48.132;11.608;2023-04-25T12:49:01;1.63;;;1.00;;
826;SDS011;395;48.132;11.608;2023-04-25T12:51:28;1.20;;;1.00;;
826;SDS011;395;48.132;11.608;2023-04-25T12:53:54;1.40;;;1.10;;
826;SDS011;395;48.132;11.608;2023-04-25T12:56:20;1.73;;;1.20;;
826;SDS011;395;48.132;11.608;2023-04-25T12:58:46;1.27;;;1.13;;
826;SDS011;395;48.132;11.608;2023-04-25T13:01:13;1.77;;;1.17;;
826;SDS011;395;48.132;11.608;2023-04-25T13:03:39;1.30;;;1.20;;
826;SDS011;395;48.132;11.608;2023-04-25T13:06:05;1.07;;;0.90;;
826;SDS011;395;48.132;11.608;2023-04-25T13:08:31;2.40;;;1.27;;
826;SDS011;395;48.132;11.608;2023-04-25T13:10:57;1.10;;;1.07;;
826;SDS011;395;48.132;11.608;2023-04-25T13:13:23;1.50;;;1.40;;
826;SDS011;395;48.132;11.608;2023-04-25T13:15:49;1.10;;;1.00;;
826;SDS011;395;48.132;11.608;2023-04-25T13:18:15;1.90;;;1.33;;
826;SDS011;395;48.132;11.608;2023-04-25T13:20:41;1.00;;;0.90;;
826;SDS011;395;48.132;11.608;2023-04-25T13:23:06;1.90;;;1.30;;
826;SDS011;395;48.132;11.608;2023-04-25T13:25:32;1.03;;;0.93;;
826;SDS011;395;48.132;11.608;2023-04-25T13:27:58;1.00;;;0.90;;
826;SDS011;395;48.132;11.608;2023-04-25T13:30:23;1.13;;;0.90;;
826;SDS011;395;48.132;11.608;2023-04-25T13:32:49;1.17;;;1.03;;
826;SDS011;395;48.132;11.608;2023-04-25T13:35:14;2.00;;;1.00;;
826;SDS011;395;48.132;11.608;2023-04-25T13:37:41;1.30;;;1.10;;
826;SDS011;395;48.132;11.608;2023-04-25T13:40:08;1.73;;;1.20;;
826;SDS011;395;48.132;11.608;2023-04-25T13:42:36;1.40;;;1.13;;
826;SDS011;395;48.132;11.608;2023-04-25T13:45:02;1.30;;;1.00;;
826;SDS011;395;48.132;11.608;2023-04-25T13:47:28;1.40;;;1.13;;
826;SDS011;395;48.132;11.608;2023-04-25T13:49:55;4.70;;;1.27;;
826;SDS011;395;48.132;11.608;2023-04-25T13:52:21;0.83;;;0.83;;
826;SDS011;395;48.132;11.608;2023-04-25T13:54:46;1.80;;;1.30;;
826;SDS011;395;48.132;11.608;2023-04-25T13:57:13;1.30;;;0.97;;
826;SDS011;395;48.132;11.608;2023-04-25T13:59:39;2.30;;;0.90;;
826;SDS011;395;48.132;11.608;2023-04-25T14:02:06;1.00;;;0.80;;
826;SDS011;395;48.132;11.608;2023-04-25T14:04:32;1.23;;;0.90;;
826;SDS011;395;48.132;11.608;2023-04-25T14:06:58;1.47;;;1.10;;
826;SDS011;395;48.132;11.608;2023-04-25T14:09:23;1.40;;;1.07;;
826;SDS011;395;48.132;11.608;2023-04-25T14:11:53;1.67;;;1.20;;
826;SDS011;395;48.132;11.608;2023-04-25T14:14:20;1.47;;;1.13;;
826;SDS011;395;48.132;11.608;2023-04-25T14:16:47;1.23;;;1.13;;
826;SDS011;395;48.132;11.608;2023-04-25T14:19:13;1.50;;;1.40;;
826;SDS011;395;48.132;11.608;2023-04-25T14:21:39;1.80;;;1.50;;
826;SDS011;395;48.132;11.608;2023-04-25T14:24:05;1.30;;;1.20;;
826;SDS011;395;48.132;11.608;2023-04-25T14:26:33;1.37;;;1.27;;
826;SDS011;395;48.132;11.608;2023-04-25T14:28:59;1.60;;;1.17;;
826;SDS011;395;48.132;11.608;2023-04-25T14:31:25;1.33;;;1.23;;
826;SDS011;395;48.132;11.608;2023-04-25T14:33:50;1.23;;;1.10;;
826;SDS011;395;48.132;11.608;2023-04-25T14:36:16;1.57;;;1.10;;
826;SDS011;395;48.132;11.608;2023-04-25T14:38:42;2.03;;;1.47;;
826;SDS011;395;48.132;11.608;2023-04-25T14:41:07;2.10;;;1.70;;
826;SDS011;395;48.132;11.608;2023-04-25T14:43:34;1.27;;;1.17;;
826;SDS011;395;48.132;11.608;2023-04-25T14:46:01;1.47;;;0.97;;
826;SDS011;395;48.132;11.608;2023-04-25T14:48:27;1.20;;;1.00;;
826;SDS011;395;48.132;11.608;2023-04-25T14:50:53;1.37;;;1.27;;
826;SDS011;395;48.132;11.608;2023-04-25T14:53:21;2.00;;;1.40;;
826;SDS011;395;48.132;11.608;2023-04-25T14:55:47;1.83;;;1.37;;
826;SDS011;395;48.132;11.608;2023-04-25T14:58:13;2.00;;;1.20;;
826;SDS011;395;48.132;11.608;2023-04-25T15:00:40;2.23;;;1.53;;
826;SDS011;395;48.132;11.608;2023-04-25T15:03:05;3.13;;;1.43;;
826;SDS011;395;48.132;11.608;2023-04-25T15:05:32;1.80;;;1.30;;
826;SDS011;395;48.132;11.608;2023-04-25T15:07:59;1.03;;;1.00;;
826;SDS011;395;48.132;11.608;2023-04-25T15:10:25;1.23;;;1.13;;
826;SDS011;395;48.132;11.608;2023-04-25T15:12:51;2.00;;;1.00;;
826;SDS011;395;48.132;11.608;2023-04-25T15:15:18;0.90;;;0.90;;
826;SDS011;395;48.132;11.608;2023-04-25T15:17:44;0.93;;;0.80;;
826;SDS011;395;48.132;11.608;2023-04-25T15:20:10;1.00;;;1.00;;
826;SDS011;395;48.132;11.608;2023-04-25T15:22:38;0.80;;;0.80;;
826;SDS011;395;48.132;11.608;2023-04-25T15:25:05;0.80;;;0.80;;
826;SDS011;395;48.132;11.608;2023-04-25T15:27:33;0.80;;;0.73;;
826;SDS011;395;48.132;11.608;2023-04-25T15:30:02;1.03;;;0.97;;
826;SDS011;395;48.132;11.608;2023-04-25T15:32:30;1.23;;;1.00;;
826;SDS011;395;48.132;11.608;2023-04-25T15:34:56;1.10;;;1.00;;
826;SDS011;395;48.132;11.608;2023-04-25T15:37:21;0.83;;;0.70;;
826;SDS011;395;48.132;11.608;2023-04-25T15:39:47;1.80;;;1.13;;
826;SDS011;395;48.132;11.608;2023-04-25T15:42:13;1.30;;;1.20;;